Terminal Aerodrome Forecast
Issued by NWS

Home | Current Version | Previous Version | Text Only | Print | Product List | Glossary On
Versions: 1 2 3 4 5 6 7 8 9 10 11 12 13 14 15 16 17
870
FTUS45 KPIH 271632 AAA
TAFSUN
TAF AMD
KSUN 271632Z 2717/2818 14008KT P6SM -SHRA VCTS SCT090 BKN120CB
     FM280300 VRB06KT P6SM SCT090
     FM280700 32008KT P6SM SKC=

USA.gov is the U.S. government's official web portal to all federal, state and local government web resources and services.